createdAt,value
2022-12-01T00:00:58.190Z,6.65
2022-12-01T00:01:58.290Z,6.64
2022-12-01T00:02:58.314Z,6.78
2022-12-01T00:03:58.185Z,6.63
2022-12-01T00:04:58.178Z,6.69
2022-12-01T00:05:58.211Z,6.64
2022-12-01T00:06:58.153Z,6.54
2022-12-01T00:07:58.204Z,6.57
2022-12-01T00:08:58.137Z,6.63
2022-12-01T00:09:58.121Z,6.60
2022-12-01T00:10:58.108Z,6.60
2022-12-01T00:11:58.176Z,6.71
2022-12-01T00:12:58.106Z,6.68
2022-12-01T00:13:58.113Z,6.71
2022-12-01T00:14:58.096Z,6.72
2022-12-01T00:15:58.067Z,6.63
2022-12-01T00:16:58.116Z,6.64
2022-12-01T00:17:58.131Z,6.64
2022-12-01T00:18:58.052Z,6.61
2022-12-01T00:19:58.059Z,6.50
2022-12-01T00:20:58.034Z,6.57
2022-12-01T00:21:58.046Z,6.51
2022-12-01T00:22:58.031Z,6.55
2022-12-01T00:23:58.235Z,6.48
2022-12-01T00:24:58.010Z,6.54
2022-12-01T00:25:58.009Z,6.50
2022-12-01T00:26:58.025Z,6.53
2022-12-01T00:27:58.001Z,6.58
2022-12-01T00:28:58.026Z,6.46
2022-12-01T00:29:58.041Z,6.45
2022-12-01T00:30:57.985Z,6.54
2022-12-01T00:31:58.019Z,6.51
2022-12-01T00:32:57.982Z,6.58
2022-12-01T00:33:57.975Z,6.55
2022-12-01T00:34:57.968Z,6.64
2022-12-01T00:35:58.011Z,6.48
2022-12-01T00:36:57.931Z,6.58
2022-12-01T00:37:57.923Z,6.63
2022-12-01T00:38:57.920Z,6.51
2022-12-01T00:39:57.914Z,6.45
2022-12-01T00:40:57.900Z,6.53
2022-12-01T00:41:57.958Z,6.58
2022-12-01T00:42:57.891Z,6.50
2022-12-01T00:43:57.902Z,6.48
2022-12-01T00:44:57.902Z,6.51
2022-12-01T00:45:57.945Z,6.53
2022-12-01T00:46:57.872Z,6.53
2022-12-01T00:47:57.885Z,6.51
2022-12-01T00:48:57.876Z,6.50
2022-12-01T00:49:57.876Z,6.53
2022-12-01T00:50:57.834Z,6.68
2022-12-01T00:51:57.844Z,6.60
2022-12-01T00:52:57.843Z,6.58
2022-12-01T00:53:57.860Z,6.64
2022-12-01T00:54:57.830Z,6.57
2022-12-01T00:55:57.802Z,6.68
2022-12-01T00:56:57.819Z,6.63
2022-12-01T00:57:57.798Z,6.55
2022-12-01T00:58:57.807Z,6.61
2022-12-01T00:59:57.860Z,6.51
2022-12-01T01:00:57.846Z,6.53
2022-12-01T01:01:57.856Z,6.50
2022-12-01T01:02:57.770Z,6.40
2022-12-01T01:03:57.770Z,6.45
2022-12-01T01:04:57.750Z,6.36
2022-12-01T01:05:57.788Z,6.43
2022-12-01T01:06:57.809Z,6.46
2022-12-01T01:07:57.812Z,6.50
2022-12-01T01:08:57.727Z,6.42
2022-12-01T01:09:57.696Z,6.50
2022-12-01T01:10:57.705Z,6.46
2022-12-01T01:11:57.747Z,6.57
2022-12-01T01:12:57.696Z,6.42
2022-12-01T01:13:57.677Z,6.46
2022-12-01T01:14:57.692Z,6.42
2022-12-01T01:15:57.682Z,6.50
2022-12-01T01:16:57.764Z,6.54
2022-12-01T01:17:57.704Z,6.39
2022-12-01T01:18:57.654Z,6.51
2022-12-01T01:19:57.640Z,6.40
2022-12-01T01:20:57.659Z,6.46
2022-12-01T01:21:57.616Z,6.58
2022-12-01T01:22:57.616Z,6.61
2022-12-01T01:23:58.056Z,6.55
2022-12-01T01:24:57.590Z,6.61
2022-12-01T01:25:57.586Z,6.57
2022-12-01T01:26:57.556Z,6.68
2022-12-01T01:27:57.577Z,6.64
2022-12-01T01:28:57.606Z,6.71
2022-12-01T01:29:57.659Z,6.69
2022-12-01T01:30:57.593Z,6.57
2022-12-01T01:31:57.548Z,6.75
2022-12-01T01:32:57.547Z,6.65
2022-12-01T01:33:57.529Z,6.57
2022-12-01T01:34:57.529Z,6.71
2022-12-01T01:35:57.580Z,6.61
2022-12-01T01:36:57.512Z,6.60
2022-12-01T01:37:57.508Z,6.61
2022-12-01T01:38:57.483Z,6.61
2022-12-01T01:39:57.505Z,6.68
2022-12-01T01:40:57.498Z,6.58
2022-12-01T01:41:57.514Z,6.64
2022-12-01T01:42:57.463Z,6.64
2022-12-01T01:43:57.489Z,6.61
2022-12-01T01:44:57.449Z,6.51
2022-12-01T01:45:57.520Z,6.63
2022-12-01T01:46:57.460Z,6.61
2022-12-01T01:47:57.497Z,6.60
2022-12-01T01:48:57.435Z,6.57
2022-12-01T01:49:57.428Z,6.61
2022-12-01T01:50:57.432Z,6.58
2022-12-01T01:51:57.408Z,6.54
2022-12-01T01:52:57.434Z,6.45
2022-12-01T01:53:57.478Z,6.51
2022-12-01T01:54:57.410Z,6.50
2022-12-01T01:55:57.411Z,6.54
2022-12-01T01:56:57.401Z,6.42
2022-12-01T01:58:18.823Z,6.55
2022-12-01T01:58:57.372Z,6.46
2022-12-01T01:59:57.414Z,6.61
2022-12-01T02:00:57.453Z,6.61
2022-12-01T02:01:57.349Z,6.69
2022-12-01T02:02:57.444Z,6.57
2022-12-01T02:03:57.355Z,6.58
2022-12-01T02:04:57.348Z,6.54
2022-12-01T02:06:01.833Z,6.55
2022-12-01T02:06:58.317Z,6.69
2022-12-01T02:07:57.372Z,6.65
2022-12-01T02:08:57.302Z,6.71
2022-12-01T02:09:57.316Z,6.69
2022-12-01T02:10:57.307Z,6.71
2022-12-01T02:11:57.324Z,6.68
2022-12-01T02:12:57.268Z,6.79
2022-12-01T02:13:57.277Z,6.71
2022-12-01T02:14:57.278Z,6.83
2022-12-01T02:15:57.262Z,6.81
2022-12-01T02:16:57.315Z,6.69
2022-12-01T02:17:57.299Z,6.69
2022-12-01T02:18:57.236Z,6.72
2022-12-01T02:19:57.208Z,6.76
2022-12-01T02:20:57.229Z,6.61
2022-12-01T02:21:57.212Z,6.69
2022-12-01T02:22:57.194Z,6.71
2022-12-01T02:23:57.470Z,6.63
2022-12-01T02:24:57.184Z,6.71
2022-12-01T02:25:57.167Z,6.58
2022-12-01T02:26:57.165Z,6.68
2022-12-01T02:27:57.156Z,6.69
2022-12-01T02:28:57.186Z,6.63
2022-12-01T02:29:57.203Z,6.68
2022-12-01T02:30:57.248Z,6.58
2022-12-01T02:31:57.133Z,6.64
2022-12-01T02:32:57.169Z,6.58
2022-12-01T02:33:57.122Z,6.63
2022-12-01T02:34:57.103Z,6.68
2022-12-01T02:35:57.159Z,6.61
2022-12-01T02:36:57.102Z,6.54
2022-12-01T02:37:57.102Z,6.50
2022-12-01T02:38:57.214Z,6.48
2022-12-01T02:39:57.092Z,6.55
2022-12-01T02:40:57.100Z,6.46
2022-12-01T02:41:57.110Z,6.55
2022-12-01T02:42:57.075Z,6.57
2022-12-01T02:43:57.055Z,6.58
2022-12-01T02:44:57.043Z,6.48
2022-12-01T02:45:57.080Z,6.46
2022-12-01T02:46:57.054Z,6.43
2022-12-01T02:47:57.108Z,6.33
2022-12-01T02:48:57.026Z,6.39
2022-12-01T02:49:57.020Z,6.30
2022-12-01T02:50:57.018Z,6.38
2022-12-01T02:51:57.009Z,6.27
2022-12-01T02:52:56.983Z,6.17
2022-12-01T02:53:57.053Z,6.20
2022-12-01T02:54:56.940Z,6.11
2022-12-01T02:55:56.977Z,6.20
2022-12-01T02:56:56.958Z,6.08
2022-12-01T02:57:56.952Z,6.10
2022-12-01T02:58:56.948Z,6.08
2022-12-01T02:59:56.982Z,6.28
2022-12-01T03:00:56.919Z,6.16
2022-12-01T03:01:56.911Z,6.24
2022-12-01T03:02:57.002Z,6.17
2022-12-01T03:03:56.906Z,6.20
2022-12-01T03:04:56.909Z,6.35
2022-12-01T03:05:56.965Z,6.38
2022-12-01T03:06:56.876Z,6.30
2022-12-01T03:07:56.898Z,6.25
2022-12-01T03:08:56.876Z,6.32
2022-12-01T03:09:56.863Z,6.28
2022-12-01T03:10:56.854Z,6.40
2022-12-01T03:11:56.913Z,6.39
2022-12-01T03:12:56.843Z,6.24
2022-12-01T03:13:56.824Z,6.20
2022-12-01T03:14:56.828Z,6.25
2022-12-01T03:15:56.870Z,6.17
2022-12-01T03:16:56.824Z,6.13
2022-12-01T03:17:56.852Z,6.14
2022-12-01T03:18:56.799Z,6.17
2022-12-01T03:19:56.797Z,6.13
2022-12-01T03:20:56.776Z,6.20
2022-12-01T03:21:56.777Z,6.16
2022-12-01T03:22:56.796Z,6.01
2022-12-01T03:23:56.822Z,6.01
2022-12-01T03:24:56.754Z,6.03
2022-12-01T03:25:56.775Z,5.99
2022-12-01T03:26:56.738Z,6.10
2022-12-01T03:28:20.101Z,6.03
2022-12-01T03:28:57.910Z,6.10
2022-12-01T03:29:56.783Z,5.93
2022-12-01T03:30:56.746Z,6.08
2022-12-01T03:31:56.721Z,6.02
2022-12-01T03:32:56.690Z,6.06
2022-12-01T03:33:56.750Z,6.05
2022-12-01T03:34:56.739Z,6.05
2022-12-01T03:35:56.811Z,6.01
2022-12-01T03:36:56.664Z,6.02
2022-12-01T03:37:56.787Z,6.03
2022-12-01T03:38:56.652Z,5.92
2022-12-01T03:40:00.257Z,5.83
2022-12-01T03:40:56.687Z,5.90
2022-12-01T03:41:56.641Z,5.84
2022-12-01T03:42:56.628Z,5.92
2022-12-01T03:43:56.647Z,5.83
2022-12-01T03:44:56.618Z,5.83
2022-12-01T03:45:56.693Z,5.80
2022-12-01T03:46:56.673Z,5.75
2022-12-01T03:47:56.625Z,5.73
2022-12-01T03:48:56.661Z,5.75
2022-12-01T03:49:56.599Z,5.77
2022-12-01T03:50:56.563Z,5.77
2022-12-01T03:51:56.582Z,5.73
2022-12-01T03:52:56.609Z,5.84
2022-12-01T03:53:56.681Z,5.84
2022-12-01T03:54:56.541Z,5.88
2022-12-01T03:55:56.547Z,5.81
2022-12-01T03:56:56.538Z,5.80
2022-12-01T03:57:56.567Z,5.83
2022-12-01T03:58:56.564Z,5.88
2022-12-01T03:59:56.520Z,5.77
2022-12-01T04:00:56.500Z,5.80
2022-12-01T04:01:56.553Z,5.81
2022-12-01T04:02:56.545Z,5.80
2022-12-01T04:03:56.500Z,5.81
2022-12-01T04:04:56.511Z,5.88
2022-12-01T04:05:56.484Z,5.85
2022-12-01T04:06:56.451Z,6.02
2022-12-01T04:07:56.527Z,5.92
2022-12-01T04:08:56.463Z,5.99
2022-12-01T04:09:56.525Z,6.06
2022-12-01T04:10:56.507Z,5.99
2022-12-01T04:11:56.447Z,6.03
2022-12-01T04:12:56.421Z,6.02
2022-12-01T04:13:56.430Z,6.02
2022-12-01T04:14:56.413Z,5.96
2022-12-01T04:15:56.442Z,6.01
2022-12-01T04:16:56.428Z,6.01
2022-12-01T04:17:56.461Z,6.01
2022-12-01T04:18:56.385Z,5.98
2022-12-01T04:19:56.361Z,6.03
2022-12-01T04:20:56.371Z,6.02
2022-12-01T04:21:56.379Z,6.05
2022-12-01T04:22:56.422Z,6.08
2022-12-01T04:23:56.344Z,6.10
2022-12-01T04:24:56.338Z,6.05
2022-12-01T04:25:56.333Z,6.03
2022-12-01T04:26:56.319Z,6.02
2022-12-01T04:27:56.319Z,6.02
2022-12-01T04:28:56.348Z,6.02
2022-12-01T04:29:56.322Z,6.14
2022-12-01T04:30:56.388Z,6.10
2022-12-01T04:31:56.278Z,6.11
2022-12-01T04:32:56.287Z,6.10
2022-12-01T04:33:56.284Z,6.01
2022-12-01T04:34:56.379Z,6.05
2022-12-01T04:35:56.279Z,5.99
2022-12-01T04:36:56.237Z,6.05
2022-12-01T04:37:56.252Z,6.06
2022-12-01T04:38:56.247Z,6.10
2022-12-01T04:39:56.226Z,6.03
2022-12-01T04:40:56.262Z,5.98
2022-12-01T04:41:56.222Z,5.96
2022-12-01T04:42:56.217Z,5.99
2022-12-01T04:43:56.201Z,5.98
2022-12-01T04:44:56.193Z,6.01
2022-12-01T04:45:56.182Z,5.95
2022-12-01T04:46:56.279Z,6.06
2022-12-01T04:47:56.181Z,5.99
2022-12-01T04:48:56.151Z,5.96
2022-12-01T04:49:56.183Z,5.90
2022-12-01T04:50:56.147Z,5.95
2022-12-01T04:51:56.153Z,5.92
2022-12-01T04:52:56.193Z,5.80
2022-12-01T04:53:56.135Z,5.83
2022-12-01T04:54:56.133Z,5.73
2022-12-01T04:55:56.122Z,5.80
2022-12-01T04:56:56.103Z,5.84
2022-12-01T04:57:56.105Z,5.83
2022-12-01T04:58:56.165Z,5.83
2022-12-01T04:59:56.093Z,5.90
2022-12-01T05:00:56.122Z,5.88
2022-12-01T05:01:56.149Z,5.88
2022-12-01T05:02:56.061Z,5.93
2022-12-01T05:03:56.076Z,5.83
2022-12-01T05:04:56.105Z,5.81
2022-12-01T05:05:56.050Z,5.90
2022-12-01T05:06:56.040Z,5.88
2022-12-01T05:07:56.078Z,5.85
2022-12-01T05:08:56.014Z,5.81
2022-12-01T05:09:56.043Z,5.75
2022-12-01T05:10:56.050Z,5.74
2022-12-01T05:11:56.134Z,5.70
2022-12-01T05:12:56.004Z,5.78
2022-12-01T05:13:55.970Z,5.67
2022-12-01T05:14:55.972Z,5.66
2022-12-01T05:15:56.035Z,5.70
2022-12-01T05:16:56.019Z,5.63
2022-12-01T05:17:55.959Z,5.55
2022-12-01T05:18:55.977Z,5.44
2022-12-01T05:19:55.947Z,5.32
2022-12-01T05:20:55.938Z,5.40
2022-12-01T05:21:55.932Z,5.35
2022-12-01T05:23:05.319Z,5.41
2022-12-01T05:23:56.935Z,5.41
2022-12-01T05:24:55.892Z,5.32
2022-12-01T05:25:55.904Z,5.41
2022-12-01T05:26:55.891Z,5.41
2022-12-01T05:27:55.890Z,5.32
2022-12-01T05:28:55.916Z,5.41
2022-12-01T05:29:55.871Z,5.37
2022-12-01T05:30:55.865Z,5.42
2022-12-01T05:31:55.905Z,5.45
2022-12-01T05:32:55.845Z,5.40
2022-12-01T05:33:55.840Z,5.42
2022-12-01T05:34:55.924Z,5.32
2022-12-01T05:35:55.824Z,5.29
2022-12-01T05:36:55.813Z,5.40
2022-12-01T05:37:55.831Z,5.33
2022-12-01T05:38:55.791Z,5.30
2022-12-01T05:39:55.785Z,5.37
2022-12-01T05:40:56.058Z,5.33
2022-12-01T05:41:55.786Z,5.26
2022-12-01T05:42:55.797Z,5.27
2022-12-01T05:43:55.785Z,5.20
2022-12-01T05:44:55.773Z,5.30
2022-12-01T05:45:55.913Z,5.15
2022-12-01T05:46:55.809Z,5.24
2022-12-01T05:47:55.736Z,5.15
2022-12-01T05:48:55.736Z,5.06
2022-12-01T05:49:59.531Z,5.19
2022-12-01T05:50:56.721Z,5.20
2022-12-01T05:51:55.720Z,5.06
2022-12-01T05:52:55.743Z,5.17
2022-12-01T05:53:55.703Z,5.17
2022-12-01T05:54:55.691Z,5.15
2022-12-01T05:55:55.653Z,5.15
2022-12-01T05:56:55.691Z,5.24
2022-12-01T05:57:55.662Z,5.26
2022-12-01T05:58:55.711Z,5.29
2022-12-01T05:59:55.637Z,5.23
2022-12-01T06:00:55.656Z,5.15
2022-12-01T06:01:55.678Z,5.17
2022-12-01T06:02:55.653Z,5.22
2022-12-01T06:03:55.699Z,5.22
2022-12-01T06:04:55.663Z,5.29
2022-12-01T06:05:55.617Z,5.22
2022-12-01T06:06:55.606Z,5.26
2022-12-01T06:07:55.640Z,5.20
2022-12-01T06:08:55.585Z,5.22
2022-12-01T06:09:55.591Z,5.29
2022-12-01T06:10:55.642Z,5.35
2022-12-01T06:11:55.579Z,5.32
2022-12-01T06:12:55.567Z,5.26
2022-12-01T06:13:55.578Z,5.24
2022-12-01T06:14:55.560Z,5.09
2022-12-01T06:15:55.591Z,5.09
2022-12-01T06:16:55.616Z,5.08
2022-12-01T06:17:55.524Z,5.12
2022-12-01T06:18:55.523Z,5.17
2022-12-01T06:19:55.512Z,5.17
2022-12-01T06:20:55.527Z,5.17
2022-12-01T06:21:55.508Z,5.22
2022-12-01T06:22:55.563Z,5.17
2022-12-01T06:23:55.497Z,5.23
2022-12-01T06:24:55.494Z,5.30
2022-12-01T06:25:55.471Z,5.32
2022-12-01T06:26:55.487Z,5.27
2022-12-01T06:27:55.476Z,5.23
2022-12-01T06:28:55.519Z,5.15
2022-12-01T06:29:55.451Z,5.14
2022-12-01T06:30:59.488Z,5.08
2022-12-01T06:31:56.492Z,4.99
2022-12-01T06:32:55.440Z,5.06
2022-12-01T06:33:55.435Z,5.02
2022-12-01T06:34:55.457Z,5.08
2022-12-01T06:35:55.398Z,5.02
2022-12-01T06:36:55.407Z,5.08
2022-12-01T06:37:55.398Z,5.11
2022-12-01T06:38:55.371Z,5.09
2022-12-01T06:39:55.404Z,5.02
2022-12-01T06:40:55.502Z,5.05
2022-12-01T06:41:55.359Z,5.15
2022-12-01T06:42:55.375Z,5.04
2022-12-01T06:43:55.347Z,5.20
2022-12-01T06:44:55.369Z,5.15
2022-12-01T06:46:01.256Z,5.19
2022-12-01T06:46:56.374Z,5.15
2022-12-01T06:47:55.340Z,5.22
2022-12-01T06:48:55.337Z,5.08
2022-12-01T06:49:55.310Z,5.23
2022-12-01T06:50:55.312Z,5.19
2022-12-01T06:51:55.311Z,5.24
2022-12-01T06:52:55.349Z,5.20
2022-12-01T06:53:55.301Z,5.12
2022-12-01T06:54:55.293Z,5.11
2022-12-01T06:55:55.274Z,5.19
2022-12-01T06:56:55.300Z,5.15
2022-12-01T06:57:55.269Z,5.24
2022-12-01T06:58:55.335Z,5.19
2022-12-01T06:59:55.252Z,5.17
2022-12-01T07:00:55.316Z,5.22
2022-12-01T07:01:55.279Z,5.23
2022-12-01T07:02:55.317Z,5.12
2022-12-01T07:03:55.222Z,5.12
2022-12-01T07:04:55.278Z,5.27
2022-12-01T07:05:55.210Z,5.14
2022-12-01T07:06:55.226Z,5.11
2022-12-01T07:07:59.532Z,5.04
2022-12-01T07:08:55.168Z,5.05
2022-12-01T07:09:55.184Z,5.06
2022-12-01T07:10:55.208Z,5.09
2022-12-01T07:11:55.156Z,5.17
2022-12-01T07:12:55.143Z,5.12
2022-12-01T07:13:55.152Z,5.12
2022-12-01T07:14:55.146Z,5.06
2022-12-01T07:15:55.154Z,5.08
2022-12-01T07:16:55.292Z,5.05
2022-12-01T07:17:55.112Z,5.02
2022-12-01T07:18:55.093Z,5.08
2022-12-01T07:19:55.112Z,4.97
2022-12-01T07:20:55.115Z,5.08
2022-12-01T07:21:55.081Z,5.08
2022-12-01T07:22:55.134Z,5.09
2022-12-01T07:23:55.096Z,5.08
2022-12-01T07:24:55.078Z,5.15
2022-12-01T07:25:55.074Z,5.12
2022-12-01T07:26:55.041Z,5.04
2022-12-01T07:27:55.063Z,5.06
2022-12-01T07:28:55.089Z,5.02
2022-12-01T07:29:55.062Z,5.08
2022-12-01T07:30:55.085Z,5.06
2022-12-01T07:31:55.023Z,5.06
2022-12-01T07:32:55.011Z,5.02
2022-12-01T07:33:55.023Z,5.08
2022-12-01T07:34:55.055Z,5.17
2022-12-01T07:35:55.132Z,5.04
2022-12-01T07:36:54.984Z,5.08
2022-12-01T07:37:54.952Z,5.11
2022-12-01T07:38:54.944Z,5.17
2022-12-01T07:39:54.986Z,5.15
2022-12-01T07:40:54.981Z,5.14
2022-12-01T07:41:54.938Z,5.22
2022-12-01T07:42:54.924Z,5.08
2022-12-01T07:43:54.926Z,5.15
2022-12-01T07:44:55.026Z,5.09
2022-12-01T07:45:54.966Z,5.11
2022-12-01T07:46:55.344Z,5.09
2022-12-01T07:47:54.909Z,5.12
2022-12-01T07:48:54.898Z,5.15
2022-12-01T07:49:54.875Z,5.14
2022-12-01T07:50:54.880Z,5.23
2022-12-01T07:51:54.870Z,5.23
2022-12-01T07:52:54.908Z,5.12
2022-12-01T07:53:54.868Z,5.09
2022-12-01T07:54:54.851Z,5.11
2022-12-01T07:55:54.861Z,5.20
2022-12-01T07:56:54.835Z,5.14
2022-12-01T07:57:54.826Z,5.27
2022-12-01T07:58:54.905Z,5.30
2022-12-01T07:59:54.799Z,5.24
2022-12-01T08:00:54.815Z,5.19
2022-12-01T08:01:54.811Z,5.27
2022-12-01T08:02:54.847Z,5.26
2022-12-01T08:03:54.799Z,5.35
2022-12-01T08:04:54.841Z,5.30
2022-12-01T08:05:54.798Z,5.23
2022-12-01T08:06:54.765Z,5.32
2022-12-01T08:07:54.825Z,5.32
2022-12-01T08:08:54.775Z,5.40
2022-12-01T08:09:54.762Z,5.45
2022-12-01T08:10:54.813Z,5.26
2022-12-01T08:11:54.744Z,5.40
2022-12-01T08:12:54.726Z,5.33
2022-12-01T08:13:54.701Z,5.40
2022-12-01T08:14:54.693Z,5.40
2022-12-01T08:15:54.734Z,5.27
2022-12-01T08:16:54.770Z,5.48
2022-12-01T08:17:54.687Z,5.37
2022-12-01T08:18:54.709Z,5.45
2022-12-01T08:19:54.673Z,5.55
2022-12-01T08:20:54.689Z,5.48
2022-12-01T08:21:54.663Z,5.42
2022-12-01T08:22:54.677Z,5.62
2022-12-01T08:23:54.665Z,5.42
2022-12-01T08:24:54.649Z,5.58
2022-12-01T08:25:54.638Z,5.48
2022-12-01T08:26:54.643Z,5.51
2022-12-01T08:27:54.608Z,5.62
2022-12-01T08:28:54.634Z,5.70
2022-12-01T08:29:54.600Z,5.67
2022-12-01T08:30:54.614Z,5.81
2022-12-01T08:31:54.592Z,5.77
2022-12-01T08:32:54.602Z,5.81
2022-12-01T08:33:54.588Z,5.81
2022-12-01T08:34:54.625Z,5.87
2022-12-01T08:35:54.562Z,5.83
2022-12-01T08:36:54.572Z,5.69
2022-12-01T08:37:54.561Z,5.78
2022-12-01T08:38:54.535Z,5.87
2022-12-01T08:39:54.527Z,5.81
2022-12-01T08:40:54.579Z,5.73
2022-12-01T08:41:54.517Z,5.62
2022-12-01T08:42:54.504Z,5.74
2022-12-01T08:43:59.055Z,5.66
2022-12-01T08:44:55.565Z,5.65
2022-12-01T08:45:54.514Z,5.63
2022-12-01T08:46:54.596Z,5.60
2022-12-01T08:47:54.519Z,5.67
2022-12-01T08:48:54.451Z,5.67
2022-12-01T08:49:54.449Z,5.73
2022-12-01T08:50:54.500Z,5.70
2022-12-01T08:51:54.464Z,5.67
2022-12-01T08:52:54.641Z,5.67
2022-12-01T08:53:54.453Z,5.70
2022-12-01T08:54:54.429Z,5.63
2022-12-01T08:55:54.449Z,5.58
2022-12-01T08:56:54.400Z,5.49
2022-12-01T08:57:54.398Z,5.37
2022-12-01T08:58:54.443Z,5.33
2022-12-01T08:59:54.398Z,5.32
2022-12-01T09:00:54.393Z,5.32
2022-12-01T09:01:54.456Z,5.23
2022-12-01T09:02:54.411Z,5.35
2022-12-01T09:03:54.365Z,5.38
2022-12-01T09:04:54.438Z,5.37
2022-12-01T09:05:54.366Z,5.37
2022-12-01T09:06:54.334Z,5.37
2022-12-01T09:07:54.381Z,5.38
2022-12-01T09:08:54.332Z,5.35
2022-12-01T09:09:54.313Z,5.26
2022-12-01T09:10:54.364Z,5.38
2022-12-01T09:11:54.301Z,5.19
2022-12-01T09:12:54.282Z,5.14
2022-12-01T09:13:54.798Z,5.14
2022-12-01T09:14:54.299Z,5.17
2022-12-01T09:15:54.362Z,5.23
2022-12-01T09:16:54.310Z,5.23
2022-12-01T09:17:54.245Z,5.26
2022-12-01T09:18:54.244Z,5.23
2022-12-01T09:19:54.239Z,5.35
2022-12-01T09:20:54.245Z,5.37
2022-12-01T09:21:54.264Z,5.33
2022-12-01T09:22:54.252Z,5.44
2022-12-01T09:23:54.195Z,5.30
2022-12-01T09:24:54.209Z,5.32
2022-12-01T09:25:54.543Z,5.30
2022-12-01T09:26:54.195Z,5.33
2022-12-01T09:27:54.195Z,5.40
2022-12-01T09:28:54.265Z,5.47
2022-12-01T09:29:54.160Z,5.33
2022-12-01T09:30:54.170Z,5.29
2022-12-01T09:31:54.223Z,5.37
2022-12-01T09:32:54.156Z,5.33
2022-12-01T09:33:54.287Z,5.37
2022-12-01T09:34:54.215Z,5.27
2022-12-01T09:35:54.129Z,5.38
2022-12-01T09:36:54.129Z,5.58
2022-12-01T09:37:54.119Z,5.44
2022-12-01T09:38:54.139Z,5.44
2022-12-01T09:39:54.100Z,5.47
2022-12-01T09:40:54.145Z,5.59
2022-12-01T09:41:54.154Z,5.58
2022-12-01T09:42:54.074Z,5.66
2022-12-01T09:43:54.085Z,5.56
2022-12-01T09:44:54.067Z,5.55
2022-12-01T09:45:54.044Z,5.55
2022-12-01T09:46:54.187Z,5.60
2022-12-01T09:47:54.054Z,5.60
2022-12-01T09:48:54.067Z,5.49
2022-12-01T09:49:54.048Z,5.45
2022-12-01T09:50:54.044Z,5.52
2022-12-01T09:51:54.008Z,5.59
2022-12-01T09:52:54.087Z,5.62
2022-12-01T09:53:53.988Z,5.66
2022-12-01T09:54:53.994Z,5.66
2022-12-01T09:55:56.677Z,5.67
2022-12-01T09:56:54.979Z,5.73
2022-12-01T09:57:54.571Z,5.80
2022-12-01T09:58:54.306Z,5.74
2022-12-01T09:59:53.951Z,5.70
2022-12-01T10:00:54.020Z,5.66
2022-12-01T10:01:54.096Z,5.63
2022-12-01T10:02:53.942Z,5.66
2022-12-01T10:03:53.922Z,5.62
2022-12-01T10:04:54.024Z,5.69
2022-12-01T10:06:25.107Z,5.78
2022-12-01T10:06:54.922Z,5.63
2022-12-01T10:07:53.944Z,5.51
2022-12-01T10:08:53.917Z,5.48
2022-12-01T10:09:53.913Z,5.56
2022-12-01T10:10:53.938Z,5.65
2022-12-01T10:11:53.880Z,5.69
2022-12-01T10:12:53.890Z,5.67
2022-12-01T10:13:53.873Z,5.70
2022-12-01T10:14:53.845Z,5.60
2022-12-01T10:15:53.875Z,5.49
2022-12-01T10:16:53.923Z,5.49
2022-12-01T10:17:53.846Z,5.52
2022-12-01T10:18:53.827Z,5.52
2022-12-01T10:19:53.820Z,5.58
2022-12-01T10:20:53.845Z,5.69
2022-12-01T10:21:53.835Z,5.74
2022-12-01T10:22:53.865Z,5.58
2022-12-01T10:23:53.803Z,5.42
2022-12-01T10:24:53.802Z,5.29
2022-12-01T10:25:53.805Z,5.49
2022-12-01T10:26:53.776Z,5.60
2022-12-01T10:27:53.771Z,5.65
2022-12-01T10:28:53.838Z,5.63
2022-12-01T10:29:54.069Z,5.62
2022-12-01T10:30:53.767Z,5.60
2022-12-01T10:31:53.859Z,5.63
2022-12-01T10:32:53.741Z,5.55
2022-12-01T10:33:53.714Z,5.48
2022-12-01T10:34:53.796Z,5.27
2022-12-01T10:35:53.716Z,5.17
2022-12-01T10:36:53.696Z,5.08
2022-12-01T10:37:53.740Z,5.15
2022-12-01T10:38:53.700Z,5.29
2022-12-01T10:39:53.717Z,5.32
2022-12-01T10:40:53.737Z,5.45
2022-12-01T10:41:53.677Z,5.56
2022-12-01T10:42:53.663Z,5.60
2022-12-01T10:43:53.672Z,5.60
2022-12-01T10:44:53.643Z,5.62
2022-12-01T10:45:53.715Z,5.56
2022-12-01T10:46:53.703Z,5.52
2022-12-01T10:47:57.584Z,5.24
2022-12-01T10:48:54.616Z,5.29
2022-12-01T10:49:53.714Z,5.26
2022-12-01T10:50:53.614Z,5.23
2022-12-01T10:51:53.573Z,5.22
2022-12-01T10:52:53.652Z,5.32
2022-12-01T10:53:53.602Z,5.23
2022-12-01T10:54:53.594Z,5.20
2022-12-01T10:55:53.558Z,5.33
2022-12-01T10:56:53.556Z,5.47
2022-12-01T10:57:53.573Z,5.49
2022-12-01T10:58:53.624Z,5.49
2022-12-01T10:59:53.547Z,5.56
2022-12-01T11:01:01.179Z,5.45
2022-12-01T11:01:54.692Z,5.40
2022-12-01T11:02:53.644Z,5.37
2022-12-01T11:03:53.542Z,5.30
2022-12-01T11:04:53.942Z,5.44
2022-12-01T11:05:53.518Z,5.30
2022-12-01T11:06:53.502Z,5.15
2022-12-01T11:07:53.605Z,5.22
2022-12-01T11:08:53.491Z,5.15
2022-12-01T11:09:53.461Z,5.20
2022-12-01T11:10:53.525Z,5.20
2022-12-01T11:11:53.451Z,5.27
2022-12-01T11:12:53.447Z,5.23
2022-12-01T11:13:53.454Z,5.24
2022-12-01T11:14:53.426Z,5.09
2022-12-01T11:15:53.428Z,5.12
2022-12-01T11:16:53.537Z,5.06
2022-12-01T11:17:53.431Z,5.05
2022-12-01T11:18:53.425Z,5.20
2022-12-01T11:19:53.592Z,5.06
2022-12-01T11:20:53.418Z,5.12
2022-12-01T11:21:53.388Z,5.15
2022-12-01T11:22:53.429Z,5.14
2022-12-01T11:23:53.384Z,5.06
2022-12-01T11:24:53.354Z,5.06
2022-12-01T11:25:53.356Z,5.12
2022-12-01T11:26:53.384Z,5.06
2022-12-01T11:27:53.355Z,4.79
2022-12-01T11:28:53.371Z,4.71
2022-12-01T11:29:53.328Z,4.91
2022-12-01T11:30:56.594Z,4.90
2022-12-01T11:31:53.384Z,5.02
2022-12-01T11:32:53.327Z,5.05
2022-12-01T11:33:53.315Z,5.05
2022-12-01T11:34:53.357Z,5.02
2022-12-01T11:35:53.331Z,5.01
2022-12-01T11:36:53.313Z,4.97
2022-12-01T11:38:21.139Z,4.88
2022-12-01T11:38:54.297Z,4.87
2022-12-01T11:39:53.321Z,4.75
2022-12-01T11:40:53.305Z,4.71
2022-12-01T11:41:53.260Z,4.84
2022-12-01T11:42:53.285Z,4.84
2022-12-01T11:44:01.220Z,4.84
2022-12-01T11:44:54.235Z,4.84
2022-12-01T11:45:53.267Z,4.83
2022-12-01T11:47:07.828Z,4.90
2022-12-01T11:47:54.199Z,4.93
2022-12-01T11:48:53.193Z,5.12
2022-12-01T11:49:53.354Z,5.02
2022-12-01T11:50:53.192Z,4.90
2022-12-01T11:51:53.195Z,5.06
2022-12-01T11:52:53.245Z,4.94
2022-12-01T11:53:53.157Z,4.94
2022-12-01T11:54:53.161Z,4.96
2022-12-01T11:55:53.153Z,4.86
2022-12-01T11:57:25.475Z,4.83
2022-12-01T11:57:54.178Z,4.88
2022-12-01T11:58:53.227Z,4.86
2022-12-01T11:59:53.269Z,4.87
2022-12-01T12:00:53.111Z,4.87
2022-12-01T12:01:53.199Z,4.84
2022-12-01T12:02:53.146Z,4.87
2022-12-01T12:03:53.235Z,4.91
2022-12-01T12:04:53.105Z,4.97
2022-12-01T12:05:57.658Z,4.94
2022-12-01T12:06:54.079Z,4.86
2022-12-01T12:07:53.098Z,4.88
2022-12-01T12:08:53.133Z,4.84
2022-12-01T12:09:53.518Z,4.93
2022-12-01T12:10:53.122Z,4.88
2022-12-01T12:11:53.014Z,4.84
2022-12-01T12:12:53.045Z,4.77
2022-12-01T12:13:53.019Z,4.80
2022-12-01T12:14:52.996Z,4.86
2022-12-01T12:15:53.103Z,4.83
2022-12-01T12:16:53.010Z,4.79
2022-12-01T12:17:53.077Z,4.84
2022-12-01T12:18:52.984Z,4.84
2022-12-01T12:20:07.679Z,4.94
2022-12-01T12:20:54.042Z,4.91
2022-12-01T12:21:52.973Z,5.04
2022-12-01T12:22:55.768Z,5.08
2022-12-01T12:23:53.010Z,4.99
2022-12-01T12:24:52.963Z,4.93
2022-12-01T12:25:52.927Z,4.87
2022-12-01T12:26:53.016Z,5.04
2022-12-01T12:27:52.934Z,4.99
2022-12-01T12:28:52.946Z,4.83
2022-12-01T12:29:53.070Z,4.90
2022-12-01T12:30:52.978Z,4.87
2022-12-01T12:31:52.906Z,4.87
2022-12-01T12:32:52.995Z,4.91
2022-12-01T12:33:52.941Z,4.94
2022-12-01T12:34:52.952Z,4.91
2022-12-01T12:35:52.873Z,4.88
2022-12-01T12:36:52.887Z,4.86
2022-12-01T12:37:52.865Z,4.83
2022-12-01T12:38:52.906Z,4.90
2022-12-01T12:39:52.941Z,4.94
2022-12-01T12:40:52.834Z,4.84
2022-12-01T12:41:52.841Z,4.79
2022-12-01T12:42:52.887Z,4.83
2022-12-01T12:43:52.852Z,4.75
2022-12-01T12:44:52.897Z,4.87
2022-12-01T12:45:52.869Z,4.84
2022-12-01T12:46:52.819Z,5.01
2022-12-01T12:47:52.784Z,4.96
2022-12-01T12:49:20.657Z,4.93
2022-12-01T12:49:55.910Z,4.87
2022-12-01T12:50:52.777Z,4.79
2022-12-01T12:51:52.772Z,4.96
2022-12-01T12:52:52.747Z,5.02
2022-12-01T12:53:52.867Z,4.99
2022-12-01T12:54:52.776Z,4.96
2022-12-01T12:55:52.822Z,4.99
2022-12-01T12:56:52.771Z,5.09
2022-12-01T12:57:52.737Z,5.04
2022-12-01T12:58:52.712Z,5.02
2022-12-01T12:59:52.742Z,4.91
2022-12-01T13:00:52.689Z,4.71
2022-12-01T13:01:52.817Z,4.86
2022-12-01T13:02:52.687Z,4.83
2022-12-01T13:03:52.708Z,4.86
2022-12-01T13:04:52.680Z,4.88
2022-12-01T13:05:52.656Z,5.01
2022-12-01T13:06:52.658Z,4.86
2022-12-01T13:07:52.730Z,4.86
2022-12-01T13:08:52.652Z,5.04
2022-12-01T13:09:52.720Z,5.08
2022-12-01T13:10:52.636Z,4.86
2022-12-01T13:11:52.634Z,4.87
2022-12-01T13:12:52.635Z,4.71
2022-12-01T13:13:52.715Z,4.80
2022-12-01T13:14:56.461Z,4.86
2022-12-01T13:15:53.688Z,4.90
2022-12-01T13:16:52.580Z,4.86
2022-12-01T13:17:52.604Z,4.88
2022-12-01T13:18:52.609Z,4.87